createdAt,value
2018-09-27T00:02:39.741Z,6.32
2018-09-27T00:05:45.475Z,6.31
2018-09-27T00:08:51.429Z,6.18
2018-09-27T00:11:57.681Z,6.25
2018-09-27T00:15:04.598Z,6.26
2018-09-27T00:18:11.669Z,6.25
2018-09-27T00:21:18.249Z,6.25
2018-09-27T00:24:24.299Z,6.24
2018-09-27T00:27:30.945Z,6.21
2018-09-27T00:30:36.861Z,6.23
2018-09-27T00:33:42.980Z,6.20
2018-09-27T00:36:50.006Z,6.17
2018-09-27T00:39:56.950Z,6.17
2018-09-27T00:43:02.982Z,6.09
2018-09-27T00:46:10.092Z,6.10
2018-09-27T00:49:15.886Z,6.08
2018-09-27T00:52:22.302Z,6.02
2018-09-27T00:55:29.119Z,5.99
2018-09-27T00:58:35.051Z,5.99
2018-09-27T01:01:41.777Z,6.00
2018-09-27T01:04:46.783Z,5.97
2018-09-27T01:07:52.873Z,5.97
2018-09-27T01:10:59.842Z,5.93
2018-09-27T01:14:05.887Z,5.94
2018-09-27T01:17:12.759Z,5.93
2018-09-27T01:20:18.855Z,5.92
2018-09-27T01:23:24.666Z,5.87
2018-09-27T01:26:31.257Z,5.77
2018-09-27T01:29:37.918Z,5.82
2018-09-27T01:32:42.906Z,5.80
2018-09-27T01:35:49.422Z,5.78
2018-09-27T01:38:54.445Z,5.75
2018-09-27T01:42:00.234Z,5.76
2018-09-27T01:45:07.018Z,5.70
2018-09-27T01:48:13.444Z,5.65
2018-09-27T01:51:19.586Z,5.60
2018-09-27T01:54:25.534Z,5.63
2018-09-27T01:57:30.705Z,5.65
2018-09-27T02:00:37.918Z,5.65
2018-09-27T02:03:42.932Z,5.59
2018-09-27T02:06:48.821Z,5.62
2018-09-27T02:09:53.874Z,5.62
2018-09-27T02:12:59.918Z,5.61
2018-09-27T02:16:07.429Z,5.60
2018-09-27T02:19:12.430Z,5.60
2018-09-27T02:22:18.079Z,5.60
2018-09-27T02:25:23.837Z,5.58
2018-09-27T02:28:29.606Z,5.52
2018-09-27T02:31:35.690Z,5.53
2018-09-27T02:34:41.817Z,5.54
2018-09-27T02:37:47.569Z,5.51
2018-09-27T02:40:53.746Z,5.56
2018-09-27T02:44:00.681Z,5.56
2018-09-27T02:47:06.741Z,5.56
2018-09-27T02:50:13.178Z,5.56
2018-09-27T02:53:19.309Z,5.53
2018-09-27T02:56:24.889Z,5.51
2018-09-27T02:59:31.354Z,5.45
2018-09-27T03:02:36.604Z,5.42
2018-09-27T03:05:43.260Z,5.41
2018-09-27T03:08:49.406Z,5.39
2018-09-27T03:11:54.455Z,5.39
2018-09-27T03:15:01.065Z,5.41
2018-09-27T03:18:06.153Z,5.40
2018-09-27T03:21:12.407Z,5.38
2018-09-27T03:24:18.382Z,5.30
2018-09-27T03:27:24.226Z,5.35
2018-09-27T03:30:29.961Z,5.38
2018-09-27T03:33:35.522Z,5.33
2018-09-27T03:36:42.377Z,5.33
2018-09-27T03:39:48.100Z,5.35
2018-09-27T03:42:53.824Z,5.31
2018-09-27T03:45:59.958Z,5.33
2018-09-27T03:49:06.450Z,5.33
2018-09-27T03:52:13.213Z,5.33
2018-09-27T03:55:18.210Z,5.31
2018-09-27T03:58:24.965Z,5.27
2018-09-27T04:01:31.819Z,5.24
2018-09-27T04:04:36.875Z,5.24
2018-09-27T04:07:42.604Z,5.24
2018-09-27T04:10:49.070Z,5.22
2018-09-27T04:13:55.042Z,5.22
2018-09-27T04:17:00.879Z,5.21
2018-09-27T04:20:07.060Z,5.22
2018-09-27T04:23:12.430Z,5.21
2018-09-27T04:26:19.953Z,5.21
2018-09-27T04:29:25.721Z,5.18
2018-09-27T04:32:30.878Z,5.14
2018-09-27T04:35:35.913Z,5.11
2018-09-27T04:38:41.778Z,5.10
2018-09-27T04:41:48.757Z,5.10
2018-09-27T04:44:53.803Z,5.10
2018-09-27T04:47:59.097Z,5.05
2018-09-27T04:51:04.169Z,5.04
2018-09-27T04:54:09.407Z,5.04
2018-09-27T04:57:14.480Z,5.05
2018-09-27T05:00:20.282Z,5.01
2018-09-27T05:03:26.405Z,4.99
2018-09-27T05:06:31.539Z,4.93
2018-09-27T05:09:37.391Z,4.84
2018-09-27T05:57:01.937Z,5.36
2018-09-27T06:00:18.911Z,5.34
2018-09-27T06:03:37.533Z,5.34
2018-09-27T06:06:57.872Z,5.36
2018-09-27T06:10:14.202Z,5.34
2018-09-27T06:13:27.791Z,5.32
2018-09-27T06:16:47.206Z,5.34
2018-09-27T06:19:59.289Z,5.35
2018-09-27T06:23:18.018Z,5.35
2018-09-27T06:26:30.346Z,5.34
2018-09-27T06:42:48.720Z,5.38
2018-09-27T06:46:02.609Z,4.96
2018-09-27T06:49:15.286Z,5.24
2018-09-27T06:52:33.692Z,5.61
2018-09-27T06:55:43.471Z,5.98
2018-09-27T06:58:57.986Z,6.19
2018-09-27T07:02:08.872Z,6.42
2018-09-27T07:05:24.985Z,6.81
2018-09-27T07:08:36.476Z,7.02
2018-09-27T07:11:48.699Z,7.18
2018-09-27T07:15:06.240Z,7.32
2018-09-27T07:18:12.441Z,7.48
2018-09-27T07:21:18.649Z,7.66
2018-09-27T07:24:24.733Z,7.93
2018-09-27T07:27:30.912Z,8.55
2018-09-27T07:30:38.071Z,9.02
2018-09-27T07:37:13.654Z,9.14
2018-09-27T07:40:20.174Z,9.29
2018-09-27T07:43:26.594Z,9.50
2018-09-27T07:46:31.626Z,9.54
2018-09-27T07:49:37.993Z,9.90
2018-09-27T07:52:44.749Z,10.34
2018-09-27T07:55:51.658Z,10.72
2018-09-27T07:58:56.724Z,11.06
2018-09-27T08:02:02.737Z,11.29
2018-09-27T08:05:07.740Z,11.47
2018-09-27T08:08:13.635Z,11.73
2018-09-27T08:11:20.636Z,12.03
2018-09-27T08:14:25.541Z,12.35
2018-09-27T08:17:31.389Z,12.62
2018-09-27T08:20:37.678Z,13.01
2018-09-27T08:23:43.289Z,13.49
2018-09-27T08:26:49.341Z,13.87
2018-09-27T08:29:55.650Z,14.36
2018-09-27T08:33:01.189Z,14.69
2018-09-27T08:36:06.222Z,14.88
2018-09-27T08:39:12.337Z,15.04
2018-09-27T08:42:17.403Z,15.43
2018-09-27T08:45:23.835Z,15.65
2018-09-27T08:48:28.550Z,15.73
2018-09-27T08:51:34.385Z,15.91
2018-09-27T08:54:39.394Z,16.13
2018-09-27T08:57:45.381Z,16.25
2018-09-27T09:00:50.391Z,16.34
2018-09-27T09:03:56.332Z,16.52
2018-09-27T09:07:02.385Z,16.73
2018-09-27T09:10:07.374Z,16.91
2018-09-27T09:13:12.398Z,17.12
2018-09-27T09:16:18.244Z,17.28
2018-09-27T09:19:24.215Z,17.47
2018-09-27T09:22:30.066Z,17.65
2018-09-27T09:25:35.981Z,17.78
2018-09-27T09:28:41.988Z,17.85
2018-09-27T09:31:48.032Z,18.09
2018-09-27T09:34:53.064Z,18.14
2018-09-27T09:37:58.214Z,18.37
2018-09-27T09:41:03.245Z,18.21
2018-09-27T09:44:08.284Z,18.45
2018-09-27T09:47:13.357Z,18.35
2018-09-27T09:50:18.386Z,18.48
2018-09-27T09:53:24.243Z,18.81
2018-09-27T09:56:29.722Z,18.87
2018-09-27T09:59:35.538Z,19.18
2018-09-27T10:02:41.418Z,19.46
2018-09-27T10:05:46.427Z,19.60
2018-09-27T10:08:51.500Z,19.52
2018-09-27T10:11:57.233Z,19.45
2018-09-27T10:15:02.248Z,19.80
2018-09-27T10:18:07.502Z,20.00
2018-09-27T10:21:12.557Z,20.22
2018-09-27T10:24:17.521Z,20.45
2018-09-27T10:27:23.534Z,20.55
2018-09-27T10:30:29.245Z,20.69
2018-09-27T10:33:36.733Z,20.77
2018-09-27T10:36:42.522Z,20.52
2018-09-27T10:39:47.523Z,20.38
2018-09-27T10:42:52.530Z,20.50
2018-09-27T10:45:58.561Z,20.58
2018-09-27T10:49:03.602Z,20.83
2018-09-27T10:52:08.617Z,21.06
2018-09-27T10:55:23.360Z,21.13
2018-09-27T10:58:31.793Z,21.07
2018-09-27T11:01:40.952Z,21.16
2018-09-27T11:04:50.571Z,21.10
2018-09-27T11:08:01.850Z,21.31
2018-09-27T11:11:12.995Z,21.36
2018-09-27T11:14:21.733Z,21.13
2018-09-27T11:17:33.797Z,21.22
2018-09-27T11:20:47.736Z,21.37
2018-09-27T11:24:01.794Z,21.52
2018-09-27T11:27:12.366Z,21.69
2018-09-27T11:30:29.354Z,21.76
2018-09-27T11:33:38.310Z,21.94
2018-09-27T11:36:52.669Z,21.92
2018-09-27T11:40:04.552Z,21.91
2018-09-27T11:43:15.023Z,22.11
2018-09-27T11:46:20.309Z,22.31
2018-09-27T11:49:26.523Z,22.41
2018-09-27T11:52:31.543Z,22.58
2018-09-27T11:55:36.545Z,22.62
2018-09-27T11:58:43.006Z,22.84
2018-09-27T12:01:49.796Z,22.83
2018-09-27T12:04:54.859Z,22.72
2018-09-27T12:08:00.848Z,22.82
2018-09-27T12:14:53.527Z,22.99
2018-09-27T12:17:59.602Z,23.02
2018-09-27T12:21:12.286Z,23.06
2018-09-27T12:24:18.428Z,23.12
2018-09-27T12:27:24.546Z,23.01
2018-09-27T12:30:30.302Z,23.12
2018-09-27T12:33:36.142Z,23.18
2018-09-27T12:36:41.261Z,23.13
2018-09-27T12:39:46.388Z,23.18
2018-09-27T12:42:52.222Z,23.42
2018-09-27T12:45:59.535Z,23.46
2018-09-27T12:49:04.683Z,23.53
2018-09-27T12:52:11.800Z,23.48
2018-09-27T12:55:18.257Z,23.64
2018-09-27T12:58:33.983Z,23.79
2018-09-27T13:01:45.195Z,23.89
2018-09-27T13:04:51.622Z,23.92
2018-09-27T13:08:03.426Z,24.17
2018-09-27T13:11:14.426Z,24.08
2018-09-27T13:14:24.297Z,24.15
2018-09-27T13:17:38.714Z,24.03
2018-09-27T13:20:50.851Z,23.99
2018-09-27T13:24:02.786Z,23.96
2018-09-27T13:27:13.387Z,24.02
2018-09-27T13:30:23.806Z,24.32
2018-09-27T13:33:35.767Z,24.32
2018-09-27T13:36:47.293Z,24.49
2018-09-27T13:39:57.137Z,24.52
2018-09-27T13:43:06.427Z,24.43
2018-09-27T13:46:15.792Z,24.62
2018-09-27T13:49:27.556Z,24.57
2018-09-27T13:52:37.232Z,24.67
2018-09-27T13:55:45.649Z,24.83
2018-09-27T13:59:00.791Z,24.72
2018-09-27T14:02:14.132Z,24.73
2018-09-27T14:05:33.424Z,24.86
2018-09-27T14:08:56.108Z,24.85
2018-09-27T14:12:04.509Z,24.74
2018-09-27T14:15:12.669Z,24.85
2018-09-27T14:18:17.963Z,24.61
2018-09-27T14:21:28.764Z,24.54
2018-09-27T14:24:39.844Z,24.67
2018-09-27T14:27:48.885Z,24.52
2018-09-27T14:33:16.259Z,24.47
2018-09-27T14:36:28.808Z,24.30
2018-09-27T14:39:41.794Z,24.06
2018-09-27T14:42:50.119Z,24.11
2018-09-27T14:46:01.098Z,24.21
2018-09-27T14:49:10.698Z,24.00
2018-09-27T14:52:22.769Z,23.92
2018-09-27T14:55:35.260Z,23.89
2018-09-27T14:58:43.279Z,23.78
2018-09-27T15:01:55.042Z,23.61
2018-09-27T15:05:05.548Z,23.66
2018-09-27T15:08:18.738Z,23.59
2018-09-27T15:11:28.364Z,23.62
2018-09-27T15:14:39.216Z,23.58
2018-09-27T15:17:54.095Z,23.46
2018-09-27T15:21:02.739Z,23.33
2018-09-27T15:24:15.797Z,23.35
2018-09-27T15:27:22.149Z,23.08
2018-09-27T15:30:38.839Z,23.01
2018-09-27T15:34:06.399Z,23.04
2018-09-27T15:37:15.668Z,22.88
2018-09-27T15:40:25.579Z,22.77
2018-09-27T15:43:40.879Z,22.56
2018-09-27T15:47:01.621Z,22.48
2018-09-27T15:50:10.395Z,22.36
2018-09-27T15:53:16.610Z,22.29
2018-09-27T15:56:23.594Z,22.24
2018-09-27T15:59:28.741Z,22.15
2018-09-27T16:02:36.421Z,21.96
2018-09-27T16:05:43.630Z,21.82
2018-09-27T16:08:50.907Z,21.57
2018-09-27T16:12:00.057Z,21.48
2018-09-27T16:15:06.118Z,21.17
2018-09-27T16:18:13.020Z,21.05
2018-09-27T16:21:19.998Z,20.87
2018-09-27T16:24:25.915Z,20.65
2018-09-27T16:27:31.149Z,20.42
2018-09-27T16:30:38.369Z,20.18
2018-09-27T16:33:44.218Z,19.97
2018-09-27T16:36:51.098Z,19.77
2018-09-27T16:39:56.142Z,19.55
2018-09-27T16:43:02.413Z,19.36
2018-09-27T16:46:08.511Z,19.09
2018-09-27T16:49:15.648Z,18.85
2018-09-27T16:52:21.086Z,18.62
2018-09-27T16:55:26.565Z,18.43
2018-09-27T16:58:34.084Z,18.22
2018-09-27T17:01:41.736Z,18.01
2018-09-27T17:04:47.829Z,17.79
2018-09-27T17:08:00.984Z,17.56
2018-09-27T17:11:08.321Z,17.37
2018-09-27T17:14:14.203Z,17.20
2018-09-27T17:17:20.093Z,17.02
2018-09-27T17:20:26.180Z,16.80
2018-09-27T17:23:33.695Z,16.69
2018-09-27T17:26:42.381Z,16.51
2018-09-27T17:29:48.346Z,16.32
2018-09-27T17:32:54.354Z,16.12
2018-09-27T17:35:59.450Z,15.96
2018-09-27T17:39:05.626Z,15.82
2018-09-27T17:42:11.855Z,15.69
2018-09-27T17:45:17.878Z,15.52
2018-09-27T17:48:23.115Z,15.38
2018-09-27T17:51:29.891Z,15.20
2018-09-27T17:54:35.969Z,15.08
2018-09-27T17:57:41.037Z,14.96
2018-09-27T18:00:46.106Z,14.83
2018-09-27T18:03:51.192Z,14.69
2018-09-27T18:06:57.851Z,14.56
2018-09-27T18:10:03.322Z,14.52
2018-09-27T18:13:08.370Z,14.45
2018-09-27T18:16:14.220Z,14.36
2018-09-27T18:19:20.457Z,14.22
2018-09-27T18:22:27.355Z,14.08
2018-09-27T18:25:33.648Z,13.76
2018-09-27T18:28:39.884Z,13.68
2018-09-27T18:31:45.950Z,13.61
2018-09-27T18:34:52.000Z,13.59
2018-09-27T18:37:58.367Z,13.51
2018-09-27T18:41:06.041Z,13.36
2018-09-27T18:44:12.255Z,13.28
2018-09-27T18:47:17.318Z,13.24
2018-09-27T18:50:22.990Z,13.15
2018-09-27T18:53:28.191Z,13.09
2018-09-27T18:56:34.698Z,13.03
2018-09-27T18:59:41.046Z,12.93
2018-09-27T19:02:46.299Z,12.85
2018-09-27T19:05:51.314Z,12.65
2018-09-27T19:08:57.426Z,12.67
2018-09-27T19:12:03.231Z,12.53
2018-09-27T19:15:09.620Z,12.51
2018-09-27T19:18:19.265Z,12.47
2018-09-27T19:21:25.487Z,12.41
2018-09-27T19:24:31.580Z,12.35
2018-09-27T19:27:37.755Z,12.27
2018-09-27T19:30:43.923Z,12.10
2018-09-27T19:33:48.962Z,12.06
2018-09-27T19:36:55.542Z,11.98
2018-09-27T19:40:00.575Z,11.99
2018-09-27T19:43:05.630Z,11.96
2018-09-27T19:46:12.658Z,11.94
2018-09-27T19:49:18.913Z,11.88
2018-09-27T19:52:26.715Z,11.82
2018-09-27T19:55:32.850Z,11.70
2018-09-27T19:58:39.528Z,11.70
2018-09-27T20:01:45.351Z,11.65
2018-09-27T20:04:51.985Z,11.55
2018-09-27T20:07:57.166Z,11.50
2018-09-27T20:11:02.941Z,11.42
2018-09-27T20:14:09.483Z,11.38
2018-09-27T20:17:14.517Z,11.35
2018-09-27T20:20:20.319Z,11.33
2018-09-27T20:23:26.198Z,11.28
2018-09-27T20:26:32.340Z,11.26
2018-09-27T20:29:38.533Z,11.17
2018-09-27T20:32:43.537Z,11.12
2018-09-27T20:35:50.113Z,11.07
2018-09-27T20:38:56.453Z,11.03
2018-09-27T20:42:03.457Z,11.01
2018-09-27T20:45:09.389Z,10.96
2018-09-27T20:48:16.168Z,10.91
2018-09-27T20:51:22.301Z,10.86
2018-09-27T20:54:28.405Z,10.80
2018-09-27T20:57:34.389Z,10.79
2018-09-27T21:00:40.438Z,10.76
2018-09-27T21:03:46.506Z,10.72
2018-09-27T21:06:51.579Z,10.70
2018-09-27T21:09:59.842Z,10.64
2018-09-27T21:25:23.215Z,10.53
2018-09-27T21:28:29.041Z,10.49
2018-09-27T21:31:34.137Z,10.47
2018-09-27T21:34:41.167Z,10.46
2018-09-27T21:37:47.159Z,10.44
2018-09-27T21:40:52.892Z,10.40
2018-09-27T21:43:59.426Z,10.35
2018-09-27T21:47:06.850Z,10.28
2018-09-27T21:50:12.938Z,10.29
2018-09-27T21:53:19.001Z,10.24
2018-09-27T21:56:25.149Z,10.21
2018-09-27T22:02:34.005Z,10.14
2018-09-27T22:05:41.419Z,10.09
2018-09-27T22:08:48.650Z,10.05
2018-09-27T22:11:53.695Z,10.01
2018-09-27T22:15:00.471Z,9.99
2018-09-27T22:18:05.526Z,9.95
2018-09-27T22:21:12.490Z,9.96
2018-09-27T22:24:18.458Z,9.92
2018-09-27T22:27:24.637Z,9.88
2018-09-27T22:30:30.681Z,9.83
2018-09-27T22:33:36.654Z,9.79
2018-09-27T22:36:41.723Z,9.77
2018-09-27T22:39:48.449Z,9.75
2018-09-27T22:42:54.604Z,9.72
2018-09-27T22:45:59.839Z,9.66
2018-09-27T22:49:04.841Z,9.70
2018-09-27T22:52:09.876Z,9.68
2018-09-27T22:55:14.873Z,9.64
2018-09-27T22:58:20.625Z,9.63
2018-09-27T23:01:27.601Z,9.59
2018-09-27T23:04:33.802Z,9.56
2018-09-27T23:07:38.820Z,9.53
2018-09-27T23:10:44.874Z,9.52
2018-09-27T23:13:49.891Z,9.52
2018-09-27T23:16:55.091Z,9.53
2018-09-27T23:20:00.899Z,9.51
2018-09-27T23:23:07.046Z,9.50
2018-09-27T23:26:12.807Z,9.51
2018-09-27T23:29:18.539Z,9.50
2018-09-27T23:32:25.331Z,9.45
2018-09-27T23:35:30.360Z,9.42
2018-09-27T23:38:35.370Z,9.37
2018-09-27T23:41:41.551Z,9.37
2018-09-27T23:44:48.549Z,9.32
2018-09-27T23:47:55.062Z,9.30
2018-09-27T23:51:00.880Z,9.25
2018-09-27T23:54:06.162Z,9.23
2018-09-27T23:57:12.526Z,9.21
